sensor_id;sensor_type;location;lat;lon;timestamp;temperature;humidity
15184;DHT22;7693;49.266;7.104;2023-03-23T05:57:47;11.40;99.90
15184;DHT22;7693;49.266;7.104;2023-03-23T06:00:13;11.40;99.90
15184;DHT22;7693;49.266;7.104;2023-03-23T06:02:40;11.50;99.90
15184;DHT22;7693;49.266;7.104;2023-03-23T06:05:09;11.50;99.90
15184;DHT22;7693;49.266;7.104;2023-03-23T06:07:35;11.50;99.90
15184;DHT22;7693;49.266;7.104;2023-03-23T06:10:00;11.50;99.90
15184;DHT22;7693;49.266;7.104;2023-03-23T06:12:26;11.60;99.90
15184;DHT22;7693;49.266;7.104;2023-03-23T06:14:52;11.60;99.90
15184;DHT22;7693;49.266;7.104;2023-03-23T06:17:18;11.60;99.90
15184;DHT22;7693;49.266;7.104;2023-03-23T06:19:44;11.60;99.90
15184;DHT22;7693;49.266;7.104;2023-03-23T06:22:15;11.60;99.90
15184;DHT22;7693;49.266;7.104;2023-03-23T06:24:40;11.60;99.90
15184;DHT22;7693;49.266;7.104;2023-03-23T06:27:06;11.60;99.90
15184;DHT22;7693;49.266;7.104;2023-03-23T06:29:34;11.60;99.90
15184;DHT22;7693;49.266;7.104;2023-03-23T06:32:01;11.70;99.90
15184;DHT22;7693;49.266;7.104;2023-03-23T06:34:31;11.70;99.90
15184;DHT22;7693;49.266;7.104;2023-03-23T06:36:58;11.70;99.90
15184;DHT22;7693;49.266;7.104;2023-03-23T06:39:23;11.80;99.90
15184;DHT22;7693;49.266;7.104;2023-03-23T06:41:49;11.80;99.90
15184;DHT22;7693;49.266;7.104;2023-03-23T06:44:15;11.80;99.90
15184;DHT22;7693;49.266;7.104;2023-03-23T06:46:42;11.90;99.90
15184;DHT22;7693;49.266;7.104;2023-03-23T06:49:08;11.90;99.90
15184;DHT22;7693;49.266;7.104;2023-03-23T06:51:34;11.90;99.90
15184;DHT22;7693;49.266;7.104;2023-03-23T06:54:00;11.90;99.90
15184;DHT22;7693;49.266;7.104;2023-03-23T06:56:26;11.80;99.90
15184;DHT22;7693;49.266;7.104;2023-03-23T06:58:52;11.80;99.90
15184;DHT22;7693;49.266;7.104;2023-03-23T07:01:18;11.80;99.90
15184;DHT22;7693;49.266;7.104;2023-03-23T07:03:43;11.90;99.90
15184;DHT22;7693;49.266;7.104;2023-03-23T07:06:10;11.90;99.90
15184;DHT22;7693;49.266;7.104;2023-03-23T07:08:36;11.90;99.90
15184;DHT22;7693;49.266;7.104;2023-03-23T07:11:02;11.90;99.90
15184;DHT22;7693;49.266;7.104;2023-03-23T07:13:32;11.90;99.90
15184;DHT22;7693;49.266;7.104;2023-03-23T07:15:57;11.90;99.90
15184;DHT22;7693;49.266;7.104;2023-03-23T07:18:23;11.90;99.90
15184;DHT22;7693;49.266;7.104;2023-03-23T07:20:50;11.90;99.90
15184;DHT22;7693;49.266;7.104;2023-03-23T07:23:17;12.00;99.90
15184;DHT22;7693;49.266;7.104;2023-03-23T07:25:43;12.00;99.90
15184;DHT22;7693;49.266;7.104;2023-03-23T07:28:09;12.00;99.90
15184;DHT22;7693;49.266;7.104;2023-03-23T07:30:35;12.00;99.90
15184;DHT22;7693;49.266;7.104;2023-03-23T07:33:04;12.10;99.90
15184;DHT22;7693;49.266;7.104;2023-03-23T07:35:30;12.20;99.90
15184;DHT22;7693;49.266;7.104;2023-03-23T07:37:55;12.20;99.90
15184;DHT22;7693;49.266;7.104;2023-03-23T07:40:21;12.20;99.90
15184;DHT22;7693;49.266;7.104;2023-03-23T07:42:52;12.20;99.90
15184;DHT22;7693;49.266;7.104;2023-03-23T07:45:18;12.20;99.90
15184;DHT22;7693;49.266;7.104;2023-03-23T07:47:44;12.20;99.90
15184;DHT22;7693;49.266;7.104;2023-03-23T07:50:10;12.20;99.90
15184;DHT22;7693;49.266;7.104;2023-03-23T07:52:38;12.20;99.90
15184;DHT22;7693;49.266;7.104;2023-03-23T07:55:06;12.20;99.90
15184;DHT22;7693;49.266;7.104;2023-03-23T07:57:32;12.20;99.90
15184;DHT22;7693;49.266;7.104;2023-03-23T07:59:59;12.20;99.90
15184;DHT22;7693;49.266;7.104;2023-03-23T08:02:25;12.10;99.90
15184;DHT22;7693;49.266;7.104;2023-03-23T08:04:51;12.20;99.90
15184;DHT22;7693;49.266;7.104;2023-03-23T08:07:19;12.20;99.90
15184;DHT22;7693;49.266;7.104;2023-03-23T08:09:45;12.20;99.90
15184;DHT22;7693;49.266;7.104;2023-03-23T08:12:12;12.20;99.90
15184;DHT22;7693;49.266;7.104;2023-03-23T08:14:38;12.20;99.90
15184;DHT22;7693;49.266;7.104;2023-03-23T08:17:05;12.20;99.90
15184;DHT22;7693;49.266;7.104;2023-03-23T08:19:31;12.20;99.90
15184;DHT22;7693;49.266;7.104;2023-03-23T08:22:04;12.20;99.90
15184;DHT22;7693;49.266;7.104;2023-03-23T08:24:31;12.10;99.90
15184;DHT22;7693;49.266;7.104;2023-03-23T08:26:58;12.10;99.90
15184;DHT22;7693;49.266;7.104;2023-03-23T08:29:24;12.10;99.90
15184;DHT22;7693;49.266;7.104;2023-03-23T08:31:50;12.10;99.90
15184;DHT22;7693;49.266;7.104;2023-03-23T08:34:15;12.10;99.90
15184;DHT22;7693;49.266;7.104;2023-03-23T08:36:41;12.10;99.90
15184;DHT22;7693;49.266;7.104;2023-03-23T08:39:09;12.00;99.90
15184;DHT22;7693;49.266;7.104;2023-03-23T08:41:35;12.10;99.90
15184;DHT22;7693;49.266;7.104;2023-03-23T08:44:01;12.00;99.90
15184;DHT22;7693;49.266;7.104;2023-03-23T08:46:27;12.00;99.90
15184;DHT22;7693;49.266;7.104;2023-03-23T08:48:52;12.00;99.90
15184;DHT22;7693;49.266;7.104;2023-03-23T08:51:19;12.00;99.90
15184;DHT22;7693;49.266;7.104;2023-03-23T08:53:45;12.20;99.90
15184;DHT22;7693;49.266;7.104;2023-03-23T08:56:11;12.20;99.90
15184;DHT22;7693;49.266;7.104;2023-03-23T08:58:39;12.30;99.90
15184;DHT22;7693;49.266;7.104;2023-03-23T09:01:06;12.40;99.90
15184;DHT22;7693;49.266;7.104;2023-03-23T09:03:33;12.40;99.90
15184;DHT22;7693;49.266;7.104;2023-03-23T09:06:01;12.40;99.90
15184;DHT22;7693;49.266;7.104;2023-03-23T09:08:28;12.40;99.90
15184;DHT22;7693;49.266;7.104;2023-03-23T09:10:58;12.40;99.90
15184;DHT22;7693;49.266;7.104;2023-03-23T09:13:24;12.40;99.90
15184;DHT22;7693;49.266;7.104;2023-03-23T09:15:49;12.50;99.90
15184;DHT22;7693;49.266;7.104;2023-03-23T09:18:15;12.50;99.90
15184;DHT22;7693;49.266;7.104;2023-03-23T09:20:42;12.50;99.90
15184;DHT22;7693;49.266;7.104;2023-03-23T09:23:09;12.50;99.90
15184;DHT22;7693;49.266;7.104;2023-03-23T09:25:35;12.50;99.90
15184;DHT22;7693;49.266;7.104;2023-03-23T09:28:00;12.50;99.90
15184;DHT22;7693;49.266;7.104;2023-03-23T09:30:29;12.50;99.90
15184;DHT22;7693;49.266;7.104;2023-03-23T09:32:55;12.50;99.90
15184;DHT22;7693;49.266;7.104;2023-03-23T09:35:22;12.50;99.90
15184;DHT22;7693;49.266;7.104;2023-03-23T09:37:50;12.50;99.90
15184;DHT22;7693;49.266;7.104;2023-03-23T09:40:22;12.50;99.90
15184;DHT22;7693;49.266;7.104;2023-03-23T09:48:56;12.30;99.90
15184;DHT22;7693;49.266;7.104;2023-03-23T09:53:52;12.30;99.90
15184;DHT22;7693;49.266;7.104;2023-03-23T09:56:20;12.40;99.90
15184;DHT22;7693;49.266;7.104;2023-03-23T09:59:14;12.50;99.90
15184;DHT22;7693;49.266;7.104;2023-03-23T10:01:50;12.60;99.90
15184;DHT22;7693;49.266;7.104;2023-03-23T10:06:53;12.60;99.90
15184;DHT22;7693;49.266;7.104;2023-03-23T10:09:22;12.70;99.90
15184;DHT22;7693;49.266;7.104;2023-03-23T10:11:55;12.70;99.90
15184;DHT22;7693;49.266;7.104;2023-03-23T10:19:49;12.80;99.90
15184;DHT22;7693;49.266;7.104;2023-03-23T10:22:26;12.80;99.90
15184;DHT22;7693;49.266;7.104;2023-03-23T10:25:03;12.80;99.90
15184;DHT22;7693;49.266;7.104;2023-03-23T10:32:48;12.80;99.90
15184;DHT22;7693;49.266;7.104;2023-03-23T10:35:26;12.80;99.90
15184;DHT22;7693;49.266;7.104;2023-03-23T10:38:02;12.80;99.90
15184;DHT22;7693;49.266;7.104;2023-03-23T10:40:30;12.80;99.90
15184;DHT22;7693;49.266;7.104;2023-03-23T10:42:57;12.90;99.90
15184;DHT22;7693;49.266;7.104;2023-03-23T10:45:24;12.90;99.90
15184;DHT22;7693;49.266;7.104;2023-03-23T10:48:36;13.00;99.90
15184;DHT22;7693;49.266;7.104;2023-03-23T10:51:03;13.00;99.90
15184;DHT22;7693;49.266;7.104;2023-03-23T10:53:35;13.00;99.90
15184;DHT22;7693;49.266;7.104;2023-03-23T10:56:04;13.00;99.90
15184;DHT22;7693;49.266;7.104;2023-03-23T10:58:32;13.10;99.90
15184;DHT22;7693;49.266;7.104;2023-03-23T13:21:00;13.80;99.90
15184;DHT22;7693;49.266;7.104;2023-03-23T13:23:34;13.80;99.90
15184;DHT22;7693;49.266;7.104;2023-03-23T13:26:03;13.70;99.90
15184;DHT22;7693;49.266;7.104;2023-03-23T13:28:33;13.70;99.90
15184;DHT22;7693;49.266;7.104;2023-03-23T13:31:11;13.70;99.90
15184;DHT22;7693;49.266;7.104;2023-03-23T13:33:38;13.60;99.90
15184;DHT22;7693;49.266;7.104;2023-03-23T13:36:11;13.60;99.90
15184;DHT22;7693;49.266;7.104;2023-03-23T13:38:38;13.60;99.90
15184;DHT22;7693;49.266;7.104;2023-03-23T13:41:12;13.60;99.90
15184;DHT22;7693;49.266;7.104;2023-03-23T13:43:40;13.50;99.90
15184;DHT22;7693;49.266;7.104;2023-03-23T13:48:48;13.50;99.90
15184;DHT22;7693;49.266;7.104;2023-03-23T13:54:38;13.40;99.90
15184;DHT22;7693;49.266;7.104;2023-03-23T13:57:48;13.40;99.90
15184;DHT22;7693;49.266;7.104;2023-03-23T14:13:51;13.40;99.90
15184;DHT22;7693;49.266;7.104;2023-03-23T14:18:59;13.30;99.90
15184;DHT22;7693;49.266;7.104;2023-03-23T14:21:34;13.30;99.90
15184;DHT22;7693;49.266;7.104;2023-03-23T14:24:12;13.30;99.90
15184;DHT22;7693;49.266;7.104;2023-03-23T14:26:39;13.30;99.90
15184;DHT22;7693;49.266;7.104;2023-03-23T14:29:05;13.30;99.90
15184;DHT22;7693;49.266;7.104;2023-03-23T14:31:31;13.30;99.90
15184;DHT22;7693;49.266;7.104;2023-03-23T14:34:03;13.30;99.90
15184;DHT22;7693;49.266;7.104;2023-03-23T14:36:30;13.30;99.90
15184;DHT22;7693;49.266;7.104;2023-03-23T14:39:04;13.30;99.90
15184;DHT22;7693;49.266;7.104;2023-03-23T14:41:31;13.40;99.90
15184;DHT22;7693;49.266;7.104;2023-03-23T14:44:00;13.40;99.90
15184;DHT22;7693;49.266;7.104;2023-03-23T14:46:26;13.50;99.90
15184;DHT22;7693;49.266;7.104;2023-03-23T14:48:52;13.60;99.90
15184;DHT22;7693;49.266;7.104;2023-03-23T14:51:20;13.70;99.90
15184;DHT22;7693;49.266;7.104;2023-03-23T14:53:46;13.70;99.90
15184;DHT22;7693;49.266;7.104;2023-03-23T14:56:18;13.80;99.90
15184;DHT22;7693;49.266;7.104;2023-03-23T14:58:45;13.90;99.90
15184;DHT22;7693;49.266;7.104;2023-03-23T15:01:14;13.90;99.90
15184;DHT22;7693;49.266;7.104;2023-03-23T15:03:49;14.00;99.90
15184;DHT22;7693;49.266;7.104;2023-03-23T15:06:19;14.10;99.90
15184;DHT22;7693;49.266;7.104;2023-03-23T15:08:47;14.10;99.90
15184;DHT22;7693;49.266;7.104;2023-03-23T15:13:46;14.20;99.90
15184;DHT22;7693;49.266;7.104;2023-03-23T15:16:18;14.20;99.90
15184;DHT22;7693;49.266;7.104;2023-03-23T15:18:50;14.20;99.90
15184;DHT22;7693;49.266;7.104;2023-03-23T15:21:50;14.20;99.90
15184;DHT22;7693;49.266;7.104;2023-03-23T15:26:46;14.20;99.90
15184;DHT22;7693;49.266;7.104;2023-03-23T15:31:53;14.20;99.90
15184;DHT22;7693;49.266;7.104;2023-03-23T15:34:40;14.20;99.90
15184;DHT22;7693;49.266;7.104;2023-03-23T15:37:19;14.20;99.90
15184;DHT22;7693;49.266;7.104;2023-03-23T15:39:45;14.10;99.90
15184;DHT22;7693;49.266;7.104;2023-03-23T15:42:22;14.10;99.90
15184;DHT22;7693;49.266;7.104;2023-03-23T15:52:39;14.00;99.90
15184;DHT22;7693;49.266;7.104;2023-03-23T15:57:44;13.90;99.90
15184;DHT22;7693;49.266;7.104;2023-03-23T16:00:10;13.80;99.90
15184;DHT22;7693;49.266;7.104;2023-03-23T16:02:36;13.80;99.90
15184;DHT22;7693;49.266;7.104;2023-03-23T16:05:02;13.80;99.90
15184;DHT22;7693;49.266;7.104;2023-03-23T16:07:29;13.80;99.90
15184;DHT22;7693;49.266;7.104;2023-03-23T16:09:55;13.80;99.90
15184;DHT22;7693;49.266;7.104;2023-03-23T16:12:21;13.80;99.90
15184;DHT22;7693;49.266;7.104;2023-03-23T16:14:46;13.80;99.90
15184;DHT22;7693;49.266;7.104;2023-03-23T16:17:19;13.80;99.90
15184;DHT22;7693;49.266;7.104;2023-03-23T16:19:45;13.80;99.90
15184;DHT22;7693;49.266;7.104;2023-03-23T16:22:11;13.80;99.90
15184;DHT22;7693;49.266;7.104;2023-03-23T16:24:37;13.80;99.90
15184;DHT22;7693;49.266;7.104;2023-03-23T16:27:03;13.80;99.90
15184;DHT22;7693;49.266;7.104;2023-03-23T16:29:28;13.80;99.90
15184;DHT22;7693;49.266;7.104;2023-03-23T16:31:54;13.80;99.90
15184;DHT22;7693;49.266;7.104;2023-03-23T16:34:20;13.80;99.90
15184;DHT22;7693;49.266;7.104;2023-03-23T16:36:45;13.80;99.90
15184;DHT22;7693;49.266;7.104;2023-03-23T16:39:11;13.80;99.90
15184;DHT22;7693;49.266;7.104;2023-03-23T16:41:37;13.70;99.90
15184;DHT22;7693;49.266;7.104;2023-03-23T16:44:02;13.70;99.90
15184;DHT22;7693;49.266;7.104;2023-03-23T16:46:28;13.70;99.90
15184;DHT22;7693;49.266;7.104;2023-03-23T16:48:54;13.70;99.90
15184;DHT22;7693;49.266;7.104;2023-03-23T16:51:20;13.60;99.90
15184;DHT22;7693;49.266;7.104;2023-03-23T16:53:46;13.60;99.90
15184;DHT22;7693;49.266;7.104;2023-03-23T16:56:11;13.50;99.90
15184;DHT22;7693;49.266;7.104;2023-03-23T16:58:37;13.50;99.90
15184;DHT22;7693;49.266;7.104;2023-03-23T17:01:03;13.40;99.90
15184;DHT22;7693;49.266;7.104;2023-03-23T17:03:29;13.40;99.90
15184;DHT22;7693;49.266;7.104;2023-03-23T17:05:55;13.30;99.90
15184;DHT22;7693;49.266;7.104;2023-03-23T17:08:23;13.30;99.90
15184;DHT22;7693;49.266;7.104;2023-03-23T17:10:49;13.20;99.90
15184;DHT22;7693;49.266;7.104;2023-03-23T17:13:15;13.20;99.90
15184;DHT22;7693;49.266;7.104;2023-03-23T17:15:43;13.20;99.90
15184;DHT22;7693;49.266;7.104;2023-03-23T17:18:08;13.10;99.90
15184;DHT22;7693;49.266;7.104;2023-03-23T17:20:34;13.10;99.90
15184;DHT22;7693;49.266;7.104;2023-03-23T17:23:01;13.10;99.90
15184;DHT22;7693;49.266;7.104;2023-03-23T17:25:27;13.10;99.90
15184;DHT22;7693;49.266;7.104;2023-03-23T17:27:55;13.10;99.90
15184;DHT22;7693;49.266;7.104;2023-03-23T17:30:20;13.10;99.90
15184;DHT22;7693;49.266;7.104;2023-03-23T17:32:46;13.10;99.90
15184;DHT22;7693;49.266;7.104;2023-03-23T17:35:13;13.00;99.90
15184;DHT22;7693;49.266;7.104;2023-03-23T17:37:39;13.00;99.90
15184;DHT22;7693;49.266;7.104;2023-03-23T17:40:06;13.00;99.90
15184;DHT22;7693;49.266;7.104;2023-03-23T17:42:35;13.00;99.90
15184;DHT22;7693;49.266;7.104;2023-03-23T17:45:01;12.90;99.90
15184;DHT22;7693;49.266;7.104;2023-03-23T17:47:27;12.90;99.90
15184;DHT22;7693;49.266;7.104;2023-03-23T17:49:53;12.90;99.90
15184;DHT22;7693;49.266;7.104;2023-03-23T17:52:18;12.90;99.90
15184;DHT22;7693;49.266;7.104;2023-03-23T17:54:44;12.80;99.90
15184;DHT22;7693;49.266;7.104;2023-03-23T17:57:10;12.80;99.90
15184;DHT22;7693;49.266;7.104;2023-03-23T17:59:36;12.80;99.90
15184;DHT22;7693;49.266;7.104;2023-03-23T18:02:01;12.80;99.90
15184;DHT22;7693;49.266;7.104;2023-03-23T18:04:29;12.80;99.90
15184;DHT22;7693;49.266;7.104;2023-03-23T18:06:56;12.80;99.90
15184;DHT22;7693;49.266;7.104;2023-03-23T18:09:22;12.70;99.90
15184;DHT22;7693;49.266;7.104;2023-03-23T18:11:48;12.70;99.90
15184;DHT22;7693;49.266;7.104;2023-03-23T18:14:14;12.80;99.90
15184;DHT22;7693;49.266;7.104;2023-03-23T18:16:39;12.70;99.90
15184;DHT22;7693;49.266;7.104;2023-03-23T18:19:05;12.70;99.90
15184;DHT22;7693;49.266;7.104;2023-03-23T18:21:32;12.70;99.90
15184;DHT22;7693;49.266;7.104;2023-03-23T18:23:57;12.70;99.90
15184;DHT22;7693;49.266;7.104;2023-03-23T18:26:23;12.70;99.90
15184;DHT22;7693;49.266;7.104;2023-03-23T18:28:50;12.70;99.90
15184;DHT22;7693;49.266;7.104;2023-03-23T18:31:17;12.70;99.90
15184;DHT22;7693;49.266;7.104;2023-03-23T18:33:47;12.70;99.90
15184;DHT22;7693;49.266;7.104;2023-03-23T18:36:15;12.60;99.90
15184;DHT22;7693;49.266;7.104;2023-03-23T18:38:43;12.60;99.90
15184;DHT22;7693;49.266;7.104;2023-03-23T18:41:09;12.60;99.90
15184;DHT22;7693;49.266;7.104;2023-03-23T18:43:36;12.50;99.90
15184;DHT22;7693;49.266;7.104;2023-03-23T18:46:02;12.50;99.90
15184;DHT22;7693;49.266;7.104;2023-03-23T18:48:28;12.40;99.90
15184;DHT22;7693;49.266;7.104;2023-03-23T18:50:57;12.40;99.90
15184;DHT22;7693;49.266;7.104;2023-03-23T18:53:23;12.40;99.90
15184;DHT22;7693;49.266;7.104;2023-03-23T18:55:50;12.30;99.90
15184;DHT22;7693;49.266;7.104;2023-03-23T18:58:17;12.30;99.90
15184;DHT22;7693;49.266;7.104;2023-03-23T19:00:44;12.20;99.90
15184;DHT22;7693;49.266;7.104;2023-03-23T19:03:10;12.20;99.90
15184;DHT22;7693;49.266;7.104;2023-03-23T19:05:37;12.20;99.90
15184;DHT22;7693;49.266;7.104;2023-03-23T19:08:05;12.20;99.90
15184;DHT22;7693;49.266;7.104;2023-03-23T19:10:33;12.20;99.90
15184;DHT22;7693;49.266;7.104;2023-03-23T19:13:00;12.20;99.90
15184;DHT22;7693;49.266;7.104;2023-03-23T19:15:25;12.30;99.90
15184;DHT22;7693;49.266;7.104;2023-03-23T19:17:51;12.30;99.90
15184;DHT22;7693;49.266;7.104;2023-03-23T19:20:21;12.30;99.90
15184;DHT22;7693;49.266;7.104;2023-03-23T19:22:46;12.30;99.90
15184;DHT22;7693;49.266;7.104;2023-03-23T19:25:12;12.40;99.90
15184;DHT22;7693;49.266;7.104;2023-03-23T19:27:38;12.40;99.90
15184;DHT22;7693;49.266;7.104;2023-03-23T19:30:04;12.40;99.90
15184;DHT22;7693;49.266;7.104;2023-03-23T19:32:32;12.40;99.90
15184;DHT22;7693;49.266;7.104;2023-03-23T19:34:57;12.40;99.90
15184;DHT22;7693;49.266;7.104;2023-03-23T19:37:23;12.40;99.90
15184;DHT22;7693;49.266;7.104;2023-03-23T19:39:49;12.40;99.90
15184;DHT22;7693;49.266;7.104;2023-03-23T19:42:14;12.40;99.90
15184;DHT22;7693;49.266;7.104;2023-03-23T19:44:42;12.50;99.90
15184;DHT22;7693;49.266;7.104;2023-03-23T19:47:08;12.50;99.90
15184;DHT22;7693;49.266;7.104;2023-03-23T19:49:34;12.50;99.90
15184;DHT22;7693;49.266;7.104;2023-03-23T19:52:00;12.50;99.90
15184;DHT22;7693;49.266;7.104;2023-03-23T19:54:27;12.50;99.90
15184;DHT22;7693;49.266;7.104;2023-03-23T19:56:52;12.50;99.90
15184;DHT22;7693;49.266;7.104;2023-03-23T19:59:18;12.50;99.90
15184;DHT22;7693;49.266;7.104;2023-03-23T20:01:43;12.50;99.90
15184;DHT22;7693;49.266;7.104;2023-03-23T20:04:10;12.60;99.90
15184;DHT22;7693;49.266;7.104;2023-03-23T20:06:36;12.50;99.90
15184;DHT22;7693;49.266;7.104;2023-03-23T20:09:02;12.60;99.90
15184;DHT22;7693;49.266;7.104;2023-03-23T20:11:29;12.60;99.90
15184;DHT22;7693;49.266;7.104;2023-03-23T20:13:55;12.60;99.90
15184;DHT22;7693;49.266;7.104;2023-03-23T20:16:22;12.50;99.90
15184;DHT22;7693;49.266;7.104;2023-03-23T20:18:47;12.50;99.90
15184;DHT22;7693;49.266;7.104;2023-03-23T20:21:18;12.50;99.90
15184;DHT22;7693;49.266;7.104;2023-03-23T20:23:49;12.50;99.90
15184;DHT22;7693;49.266;7.104;2023-03-23T20:26:24;12.40;99.90
15184;DHT22;7693;49.266;7.104;2023-03-23T20:28:49;12.40;99.90
15184;DHT22;7693;49.266;7.104;2023-03-23T20:31:19;12.40;99.90
15184;DHT22;7693;49.266;7.104;2023-03-23T20:33:46;12.40;99.90
15184;DHT22;7693;49.266;7.104;2023-03-23T20:36:13;12.40;99.90
15184;DHT22;7693;49.266;7.104;2023-03-23T20:38:39;12.40;99.90
15184;DHT22;7693;49.266;7.104;2023-03-23T20:41:08;12.40;99.90
15184;DHT22;7693;49.266;7.104;2023-03-23T20:43:40;12.40;99.90
15184;DHT22;7693;49.266;7.104;2023-03-23T20:46:07;12.40;99.90
15184;DHT22;7693;49.266;7.104;2023-03-23T20:48:35;12.30;99.90
15184;DHT22;7693;49.266;7.104;2023-03-23T20:51:03;12.30;99.90
15184;DHT22;7693;49.266;7.104;2023-03-23T20:53:30;12.30;99.90
15184;DHT22;7693;49.266;7.104;2023-03-23T20:55:57;12.30;99.90
15184;DHT22;7693;49.266;7.104;2023-03-23T20:58:24;12.30;99.90
15184;DHT22;7693;49.266;7.104;2023-03-23T21:00:51;12.30;99.90
15184;DHT22;7693;49.266;7.104;2023-03-23T21:03:26;12.20;99.90
15184;DHT22;7693;49.266;7.104;2023-03-23T21:05:52;12.20;99.90
15184;DHT22;7693;49.266;7.104;2023-03-23T21:08:17;12.20;99.90
15184;DHT22;7693;49.266;7.104;2023-03-23T21:10:44;12.20;99.90
15184;DHT22;7693;49.266;7.104;2023-03-23T21:13:11;12.20;99.90
15184;DHT22;7693;49.266;7.104;2023-03-23T21:15:37;12.20;99.90
15184;DHT22;7693;49.266;7.104;2023-03-23T21:18:03;12.20;99.90
15184;DHT22;7693;49.266;7.104;2023-03-23T21:20:28;12.20;99.90
15184;DHT22;7693;49.266;7.104;2023-03-23T21:22:54;12.30;99.90
15184;DHT22;7693;49.266;7.104;2023-03-23T21:25:20;12.20;99.90
15184;DHT22;7693;49.266;7.104;2023-03-23T21:27:47;12.20;99.90
15184;DHT22;7693;49.266;7.104;2023-03-23T21:30:13;12.20;99.90
15184;DHT22;7693;49.266;7.104;2023-03-23T21:32:39;12.20;99.90
15184;DHT22;7693;49.266;7.104;2023-03-23T21:35:05;12.20;99.90
15184;DHT22;7693;49.266;7.104;2023-03-23T21:37:31;12.20;99.90
15184;DHT22;7693;49.266;7.104;2023-03-23T21:39:57;12.20;99.90
15184;DHT22;7693;49.266;7.104;2023-03-23T21:42:23;12.20;99.90
15184;DHT22;7693;49.266;7.104;2023-03-23T21:44:58;12.10;99.90
15184;DHT22;7693;49.266;7.104;2023-03-23T21:47:27;12.10;99.90
15184;DHT22;7693;49.266;7.104;2023-03-23T21:49:54;12.20;99.90
15184;DHT22;7693;49.266;7.104;2023-03-23T21:52:21;12.20;99.90
15184;DHT22;7693;49.266;7.104;2023-03-23T21:54:47;12.10;99.90
15184;DHT22;7693;49.266;7.104;2023-03-23T21:57:13;12.10;99.90
15184;DHT22;7693;49.266;7.104;2023-03-23T21:59:39;12.10;99.90
15184;DHT22;7693;49.266;7.104;2023-03-23T22:02:04;12.10;99.90
15184;DHT22;7693;49.266;7.104;2023-03-23T22:04:31;12.10;99.90
15184;DHT22;7693;49.266;7.104;2023-03-23T22:06:56;12.00;99.90
15184;DHT22;7693;49.266;7.104;2023-03-23T22:09:22;12.00;99.90
15184;DHT22;7693;49.266;7.104;2023-03-23T22:11:48;12.00;99.90
15184;DHT22;7693;49.266;7.104;2023-03-23T22:14:14;12.00;99.90
15184;DHT22;7693;49.266;7.104;2023-03-23T22:16:39;12.00;99.90
15184;DHT22;7693;49.266;7.104;2023-03-23T22:19:05;12.00;99.90
15184;DHT22;7693;49.266;7.104;2023-03-23T22:21:31;12.10;99.90
15184;DHT22;7693;49.266;7.104;2023-03-23T22:23:58;12.00;99.90
15184;DHT22;7693;49.266;7.104;2023-03-23T22:26:25;12.00;99.90
15184;DHT22;7693;49.266;7.104;2023-03-23T22:28:52;12.00;99.90
15184;DHT22;7693;49.266;7.104;2023-03-23T22:31:24;12.00;99.90
15184;DHT22;7693;49.266;7.104;2023-03-23T22:33:51;12.00;99.90
15184;DHT22;7693;49.266;7.104;2023-03-23T22:36:21;12.00;99.90
15184;DHT22;7693;49.266;7.104;2023-03-23T22:38:47;12.00;99.90
15184;DHT22;7693;49.266;7.104;2023-03-23T22:41:23;12.00;99.90
15184;DHT22;7693;49.266;7.104;2023-03-23T22:43:49;12.00;99.90
15184;DHT22;7693;49.266;7.104;2023-03-23T22:46:15;12.00;99.90
15184;DHT22;7693;49.266;7.104;2023-03-23T22:48:42;12.00;99.90
15184;DHT22;7693;49.266;7.104;2023-03-23T22:51:09;12.00;99.90
15184;DHT22;7693;49.266;7.104;2023-03-23T22:53:35;12.00;99.90
15184;DHT22;7693;49.266;7.104;2023-03-23T22:56:01;12.00;99.90
15184;DHT22;7693;49.266;7.104;2023-03-23T22:58:27;12.00;99.90
15184;DHT22;7693;49.266;7.104;2023-03-23T23:01:08;12.00;99.90
15184;DHT22;7693;49.266;7.104;2023-03-23T23:03:34;12.00;99.90
15184;DHT22;7693;49.266;7.104;2023-03-23T23:05:59;12.00;99.90
15184;DHT22;7693;49.266;7.104;2023-03-23T23:08:27;12.00;99.90
15184;DHT22;7693;49.266;7.104;2023-03-23T23:10:55;12.00;99.90
15184;DHT22;7693;49.266;7.104;2023-03-23T23:13:22;11.90;99.90
15184;DHT22;7693;49.266;7.104;2023-03-23T23:15:52;11.90;99.90
15184;DHT22;7693;49.266;7.104;2023-03-23T23:18:18;11.90;99.90
15184;DHT22;7693;49.266;7.104;2023-03-23T23:20:48;11.90;99.90
15184;DHT22;7693;49.266;7.104;2023-03-23T23:23:14;11.80;99.90
15184;DHT22;7693;49.266;7.104;2023-03-23T23:25:39;11.90;99.90
15184;DHT22;7693;49.266;7.104;2023-03-23T23:28:06;11.80;99.90
15184;DHT22;7693;49.266;7.104;2023-03-23T23:30:32;11.80;99.90
